createdAt,value
2019-02-05T00:00:32.830Z,97.64
2019-02-05T00:01:34.040Z,97.39
2019-02-05T00:02:32.818Z,97.44
2019-02-05T00:03:32.797Z,96.77
2019-02-05T00:04:32.840Z,96.87
2019-02-05T00:05:32.777Z,96.87
2019-02-05T00:06:32.796Z,97.08
2019-02-05T00:07:32.757Z,96.87
2019-02-05T00:08:32.747Z,96.97
2019-02-05T00:09:32.733Z,97.08
2019-02-05T00:10:32.725Z,96.97
2019-02-05T00:11:32.749Z,96.45
2019-02-05T00:12:32.715Z,96.77
2019-02-05T00:13:32.692Z,96.66
2019-02-05T00:14:32.692Z,96.66
2019-02-05T00:15:32.678Z,96.97
2019-02-05T00:16:32.698Z,97.18
2019-02-05T00:17:32.656Z,97.39
2019-02-05T00:18:32.648Z,97.18
2019-02-05T00:19:32.636Z,97.71
2019-02-05T00:20:32.624Z,97.92
2019-02-05T00:21:32.615Z,98.34
2019-02-05T00:22:32.653Z,98.55
2019-02-05T00:23:32.602Z,97.60
2019-02-05T00:24:32.586Z,97.18
2019-02-05T00:25:32.585Z,96.97
2019-02-05T00:26:32.572Z,96.97
2019-02-05T00:27:32.584Z,96.97
2019-02-05T00:28:32.548Z,96.66
2019-02-05T00:29:32.537Z,96.24
2019-02-05T00:30:32.530Z,95.72
2019-02-05T00:31:32.518Z,96.66
2019-02-05T00:32:32.538Z,96.13
2019-02-05T00:33:32.490Z,96.34
2019-02-05T00:34:32.487Z,96.77
2019-02-05T00:35:32.492Z,96.55
2019-02-05T00:36:32.472Z,96.45
2019-02-05T00:37:32.480Z,96.55
2019-02-05T00:38:32.444Z,96.34
2019-02-05T00:39:32.433Z,97.29
2019-02-05T00:40:32.424Z,96.24
2019-02-05T00:41:32.414Z,97.08
2019-02-05T00:42:32.433Z,97.39
2019-02-05T00:43:32.396Z,97.29
2019-02-05T00:44:32.382Z,97.81
2019-02-05T00:45:32.379Z,97.71
2019-02-05T00:46:32.369Z,97.92
2019-02-05T00:47:32.376Z,98.55
2019-02-05T00:48:32.347Z,97.92
2019-02-05T00:49:32.335Z,98.34
2019-02-05T00:50:32.327Z,97.39
2019-02-05T00:51:32.310Z,97.08
2019-02-05T00:52:32.330Z,97.39
2019-02-05T00:53:32.296Z,97.50
2019-02-05T00:54:32.276Z,97.18
2019-02-05T00:55:32.273Z,97.39
2019-02-05T00:56:32.271Z,97.50
2019-02-05T00:57:32.276Z,97.60
2019-02-05T00:58:32.243Z,97.50
2019-02-05T00:59:32.233Z,97.39
2019-02-05T01:00:32.226Z,96.81
2019-02-05T01:01:32.208Z,96.49
2019-02-05T01:02:32.234Z,97.44
2019-02-05T01:03:32.188Z,97.54
2019-02-05T01:04:32.186Z,97.64
2019-02-05T01:05:32.177Z,97.64
2019-02-05T01:06:32.162Z,98.17
2019-02-05T01:07:32.185Z,98.34
2019-02-05T01:08:32.147Z,98.55
2019-02-05T01:09:32.133Z,98.38
2019-02-05T01:10:32.121Z,98.49
2019-02-05T01:11:32.122Z,97.54
2019-02-05T01:12:32.147Z,97.17
2019-02-05T01:13:32.092Z,97.27
2019-02-05T01:14:32.084Z,97.48
2019-02-05T01:15:32.074Z,97.58
2019-02-05T01:16:32.077Z,98.64
2019-02-05T01:17:32.088Z,98.64
2019-02-05T01:18:32.038Z,98.64
2019-02-05T01:19:32.033Z,98.58
2019-02-05T01:20:32.023Z,97.53
2019-02-05T01:21:32.011Z,97.53
2019-02-05T01:22:32.040Z,97.94
2019-02-05T01:23:31.994Z,98.68
2019-02-05T01:24:31.990Z,98.58
2019-02-05T01:25:31.977Z,98.68
2019-02-05T01:26:31.969Z,98.79
2019-02-05T01:27:31.983Z,99.31
2019-02-05T01:28:31.940Z,99.00
2019-02-05T01:29:31.936Z,98.89
2019-02-05T01:30:31.925Z,98.89
2019-02-05T01:31:31.914Z,98.79
2019-02-05T01:32:31.929Z,98.89
2019-02-05T01:33:31.893Z,99.00
2019-02-05T01:34:31.884Z,98.43
2019-02-05T01:35:31.881Z,98.68
2019-02-05T01:36:31.868Z,98.47
2019-02-05T01:37:31.899Z,98.79
2019-02-05T01:38:31.843Z,98.89
2019-02-05T01:39:31.839Z,98.89
2019-02-05T01:40:31.820Z,98.79
2019-02-05T01:41:32.462Z,98.79
2019-02-05T01:42:31.897Z,98.89
2019-02-05T01:43:31.799Z,98.58
2019-02-05T01:44:31.811Z,98.68
2019-02-05T01:45:31.776Z,98.47
2019-02-05T01:46:31.781Z,99.10
2019-02-05T01:47:31.798Z,99.21
2019-02-05T01:48:31.743Z,99.31
2019-02-05T01:49:31.734Z,99.37
2019-02-05T01:50:32.453Z,98.79
2019-02-05T01:51:31.707Z,98.36
2019-02-05T01:52:31.704Z,98.36
2019-02-05T01:53:31.748Z,98.41
2019-02-05T01:54:31.685Z,98.72
2019-02-05T01:55:31.677Z,98.62
2019-02-05T01:56:40.403Z,98.77
2019-02-05T01:57:32.681Z,98.35
2019-02-05T01:58:31.649Z,98.66
2019-02-05T01:59:31.628Z,98.66
2019-02-05T02:00:31.619Z,98.46
2019-02-05T02:01:31.612Z,99.15
2019-02-05T02:02:31.632Z,99.25
2019-02-05T02:03:31.594Z,98.94
2019-02-05T02:04:31.588Z,98.62
2019-02-05T02:05:31.566Z,98.46
2019-02-05T02:06:31.557Z,98.35
2019-02-05T02:07:31.578Z,98.62
2019-02-05T02:08:31.544Z,98.62
2019-02-05T02:09:31.552Z,98.30
2019-02-05T02:10:31.522Z,98.52
2019-02-05T02:11:31.510Z,98.83
2019-02-05T02:12:31.496Z,98.98
2019-02-05T02:13:31.526Z,98.98
2019-02-05T02:14:31.480Z,99.51
2019-02-05T02:15:31.468Z,99.19
2019-02-05T02:16:31.461Z,99.51
2019-02-05T02:17:31.447Z,98.88
2019-02-05T02:18:31.479Z,98.98
2019-02-05T02:19:31.430Z,99.24
2019-02-05T02:20:31.417Z,99.34
2019-02-05T02:21:31.403Z,99.66
2019-02-05T02:22:31.407Z,98.86
2019-02-05T02:23:31.414Z,98.86
2019-02-05T02:24:31.384Z,97.85
2019-02-05T02:25:31.371Z,97.96
2019-02-05T02:26:31.356Z,98.69
2019-02-05T02:27:31.353Z,98.27
2019-02-05T02:28:31.363Z,99.11
2019-02-05T02:29:31.332Z,99.39
2019-02-05T02:30:31.319Z,99.54
2019-02-05T02:31:31.306Z,99.75
2019-02-05T02:32:31.299Z,99.75
2019-02-05T02:33:31.318Z,99.69
2019-02-05T02:34:31.280Z,99.05
2019-02-05T02:35:31.291Z,98.79
2019-02-05T02:36:31.260Z,99.10
2019-02-05T02:37:31.260Z,99.10
2019-02-05T02:38:31.278Z,98.68
2019-02-05T02:39:31.229Z,98.79
2019-02-05T02:40:31.220Z,98.89
2019-02-05T02:41:31.213Z,98.95
2019-02-05T02:42:31.195Z,98.63
2019-02-05T02:43:31.242Z,98.85
2019-02-05T02:44:31.183Z,97.69
2019-02-05T02:45:31.177Z,98.99
2019-02-05T02:46:31.171Z,98.89
2019-02-05T02:47:31.147Z,99.10
2019-02-05T02:48:31.191Z,99.21
2019-02-05T02:49:31.152Z,98.99
2019-02-05T02:50:31.135Z,99.41
2019-02-05T02:51:31.109Z,98.79
2019-02-05T02:52:31.098Z,99.21
2019-02-05T02:53:31.150Z,99.79
2019-02-05T02:54:31.087Z,99.99
2019-02-05T02:55:31.070Z,99.99
2019-02-05T02:56:31.958Z,99.99
2019-02-05T02:57:31.054Z,99.99
2019-02-05T02:58:31.083Z,99.99
2019-02-05T02:59:31.037Z,99.99
2019-02-05T03:00:31.042Z,99.95
2019-02-05T03:01:31.014Z,99.57
2019-02-05T03:02:31.007Z,99.84
2019-02-05T03:03:31.028Z,99.99
2019-02-05T03:04:30.988Z,99.78
2019-02-05T03:05:30.973Z,99.99
2019-02-05T03:06:30.968Z,99.99
2019-02-05T03:07:30.958Z,99.99
2019-02-05T03:08:30.974Z,99.99
2019-02-05T03:09:30.937Z,99.84
2019-02-05T03:10:31.191Z,99.99
2019-02-05T03:11:31.403Z,99.46
2019-02-05T03:12:31.099Z,99.93
2019-02-05T03:13:31.273Z,99.72
2019-02-05T03:14:31.112Z,99.93
2019-02-05T03:15:31.123Z,99.72
2019-02-05T03:16:31.110Z,99.99
2019-02-05T03:17:31.310Z,99.99
2019-02-05T03:18:31.113Z,99.82
2019-02-05T03:19:31.105Z,99.98
2019-02-05T03:20:31.088Z,99.82
2019-02-05T03:21:31.066Z,99.99
2019-02-05T03:22:31.259Z,99.99
2019-02-05T03:23:31.082Z,99.99
2019-02-05T03:24:31.033Z,99.99
2019-02-05T03:25:31.036Z,99.99
2019-02-05T03:26:31.001Z,99.99
2019-02-05T03:27:31.209Z,99.99
2019-02-05T03:28:31.006Z,99.99
2019-02-05T03:29:31.013Z,99.99
2019-02-05T03:30:30.964Z,99.99
2019-02-05T03:31:30.966Z,99.99
2019-02-05T03:32:31.266Z,99.99
2019-02-05T03:33:30.974Z,99.99
2019-02-05T03:34:30.964Z,99.99
2019-02-05T03:35:30.913Z,99.99
2019-02-05T03:36:30.933Z,99.99
2019-02-05T03:37:31.156Z,99.99
2019-02-05T03:38:30.920Z,99.99
2019-02-05T03:39:30.923Z,99.99
2019-02-05T03:40:30.869Z,99.99
2019-02-05T03:41:30.893Z,99.99
2019-02-05T03:42:31.128Z,99.99
2019-02-05T03:43:30.867Z,99.99
2019-02-05T03:44:30.865Z,99.99
2019-02-05T03:45:30.836Z,99.99
2019-02-05T03:46:30.848Z,99.99
2019-02-05T03:47:31.107Z,99.99
2019-02-05T03:48:30.798Z,99.99
2019-02-05T03:49:31.012Z,99.99
2019-02-05T03:50:30.788Z,99.99
2019-02-05T03:51:30.786Z,99.99
2019-02-05T03:52:30.783Z,99.99
2019-02-05T03:53:30.792Z,99.99
2019-02-05T03:54:30.758Z,99.99
2019-02-05T03:55:30.979Z,99.99
2019-02-05T03:56:30.743Z,99.99
2019-02-05T03:57:31.948Z,99.99
2019-02-05T03:58:30.775Z,99.99
2019-02-05T03:59:30.717Z,99.99
2019-02-05T04:00:30.729Z,99.99
2019-02-05T04:01:30.674Z,99.99
2019-02-05T04:02:30.890Z,99.99
2019-02-05T04:03:30.687Z,99.99
2019-02-05T04:04:30.652Z,99.99
2019-02-05T04:05:32.524Z,99.99
2019-02-05T04:06:30.617Z,99.99
2019-02-05T04:07:30.878Z,99.99
2019-02-05T04:08:30.887Z,99.99
2019-02-05T04:09:30.616Z,99.99
2019-02-05T04:10:30.589Z,99.99
2019-02-05T04:11:30.584Z,99.99
2019-02-05T04:12:30.554Z,99.99
2019-02-05T04:13:30.571Z,99.99
2019-02-05T04:14:30.813Z,99.99
2019-02-05T04:15:30.544Z,99.99
2019-02-05T04:16:30.553Z,99.99
2019-02-05T04:17:30.515Z,99.99
2019-02-05T04:18:31.009Z,99.99
2019-02-05T04:19:30.500Z,99.99
2019-02-05T04:20:30.475Z,99.37
2019-02-05T04:21:30.501Z,99.32
2019-02-05T04:22:30.726Z,99.75
2019-02-05T04:23:30.483Z,99.96
2019-02-05T04:24:30.441Z,99.96
2019-02-05T04:25:30.436Z,99.99
2019-02-05T04:26:30.452Z,99.96
2019-02-05T04:27:43.393Z,99.96
2019-02-05T04:28:31.676Z,99.99
2019-02-05T04:29:30.478Z,99.99
2019-02-05T04:30:30.407Z,99.99
2019-02-05T04:31:30.664Z,99.99
2019-02-05T04:32:30.602Z,99.99
2019-02-05T04:33:30.594Z,99.99
2019-02-05T04:34:30.381Z,99.99
2019-02-05T04:35:30.373Z,99.99
2019-02-05T04:36:30.364Z,99.99
2019-02-05T04:37:30.301Z,99.99
2019-02-05T04:38:30.538Z,99.99
2019-02-05T04:39:30.327Z,99.99
2019-02-05T04:40:30.306Z,99.99
2019-02-05T04:41:30.286Z,99.99
2019-02-05T04:42:30.287Z,99.99
2019-02-05T04:43:30.498Z,99.99
2019-02-05T04:44:30.233Z,99.99
2019-02-05T04:45:34.257Z,99.99
2019-02-05T04:46:30.256Z,99.99
2019-02-05T04:47:30.231Z,99.99
2019-02-05T04:48:30.432Z,99.99
2019-02-05T04:49:30.218Z,99.99
2019-02-05T04:50:30.223Z,99.99
2019-02-05T04:51:30.235Z,99.99
2019-02-05T04:52:29.966Z,99.99
2019-02-05T04:53:30.033Z,99.99
2019-02-05T04:54:29.936Z,99.99
2019-02-05T04:55:29.948Z,99.99
2019-02-05T04:56:29.929Z,99.99
2019-02-05T04:57:29.906Z,99.99
2019-02-05T04:58:29.974Z,99.99
2019-02-05T04:59:29.899Z,99.99
2019-02-05T05:00:29.881Z,99.99
2019-02-05T05:01:29.830Z,99.99
2019-02-05T05:02:29.827Z,99.99
2019-02-05T05:03:29.850Z,99.99
2019-02-05T05:04:29.809Z,99.99
2019-02-05T05:05:29.807Z,99.99
2019-02-05T05:06:29.794Z,99.99
2019-02-05T05:07:29.790Z,99.99
2019-02-05T05:08:29.807Z,99.99
2019-02-05T05:09:29.760Z,99.99
2019-02-05T05:10:29.751Z,99.99
2019-02-05T05:11:29.744Z,99.99
2019-02-05T05:12:29.726Z,99.99
2019-02-05T05:13:29.747Z,99.99
2019-02-05T05:14:29.714Z,99.99
2019-02-05T05:15:29.714Z,99.99
2019-02-05T05:16:29.690Z,99.99
2019-02-05T05:17:29.680Z,99.99
2019-02-05T05:18:29.716Z,99.99
2019-02-05T05:19:29.658Z,99.99
2019-02-05T05:20:29.645Z,99.99
2019-02-05T05:21:29.639Z,99.99
2019-02-05T05:22:29.626Z,99.99
2019-02-05T05:23:29.661Z,99.99
2019-02-05T05:24:29.605Z,99.99
2019-02-05T05:25:29.633Z,99.99
2019-02-05T05:26:29.591Z,99.99
2019-02-05T05:27:29.578Z,99.99
2019-02-05T05:28:29.570Z,99.99
2019-02-05T05:29:33.004Z,99.99
2019-02-05T05:30:29.546Z,99.99
2019-02-05T05:31:29.583Z,99.99
2019-02-05T05:32:29.520Z,99.99
2019-02-05T05:33:29.544Z,99.99
2019-02-05T05:34:29.561Z,99.99
2019-02-05T05:35:41.708Z,99.99
2019-02-05T05:36:30.484Z,99.99
2019-02-05T05:37:29.481Z,99.99
2019-02-05T05:38:29.478Z,99.99
2019-02-05T05:39:29.475Z,99.99
2019-02-05T05:40:29.437Z,99.99
2019-02-05T05:41:29.430Z,99.99
2019-02-05T05:42:29.419Z,99.99
2019-02-05T05:43:29.419Z,99.99
2019-02-05T05:44:29.444Z,99.99
2019-02-05T05:45:29.399Z,99.99
2019-02-05T05:46:29.378Z,99.99
2019-02-05T05:47:29.367Z,99.99
2019-02-05T05:48:29.358Z,99.99
2019-02-05T05:49:29.364Z,99.99
2019-02-05T05:50:29.374Z,99.99
2019-02-05T05:51:29.331Z,99.99
2019-02-05T05:52:29.318Z,99.99
2019-02-05T05:53:29.313Z,99.99
2019-02-05T05:54:29.336Z,99.99
2019-02-05T05:55:29.298Z,99.99
2019-02-05T05:56:29.279Z,99.99
2019-02-05T05:57:29.282Z,99.99
2019-02-05T05:58:29.260Z,99.99
2019-02-05T05:59:29.281Z,99.99
2019-02-05T06:00:29.248Z,99.99
2019-02-05T06:01:29.233Z,99.99
2019-02-05T06:02:29.226Z,99.99
2019-02-05T06:03:29.238Z,99.99
2019-02-05T06:04:29.228Z,99.99
2019-02-05T06:05:29.204Z,99.99
2019-02-05T06:06:29.181Z,99.99
2019-02-05T06:07:29.199Z,99.99
2019-02-05T06:08:29.164Z,99.99
2019-02-05T06:09:29.155Z,99.99
2019-02-05T06:10:29.141Z,99.99
2019-02-05T06:11:29.146Z,99.99
2019-02-05T06:12:29.124Z,99.99
2019-02-05T06:13:29.136Z,99.99
2019-02-05T06:14:29.105Z,99.99
2019-02-05T06:15:29.092Z,99.99
2019-02-05T06:16:29.086Z,99.99
2019-02-05T06:17:29.074Z,99.99
2019-02-05T06:18:29.074Z,99.99
2019-02-05T06:19:29.093Z,99.99
2019-02-05T06:20:29.046Z,99.99
2019-02-05T06:21:29.035Z,99.99
2019-02-05T06:22:29.024Z,99.99
2019-02-05T06:23:29.047Z,99.99
2019-02-05T06:24:29.024Z,99.99
2019-02-05T06:25:29.022Z,99.99
2019-02-05T06:26:28.985Z,99.99
2019-02-05T06:27:28.980Z,99.99
2019-02-05T06:28:34.832Z,99.99
2019-02-05T06:29:30.082Z,99.99
2019-02-05T06:30:28.948Z,99.99
2019-02-05T06:31:28.936Z,99.99
2019-02-05T06:32:28.929Z,99.99
2019-02-05T06:33:28.914Z,99.99
2019-02-05T06:34:28.935Z,99.99
2019-02-05T06:35:28.899Z,99.99
2019-02-05T06:36:28.883Z,99.99
2019-02-05T06:37:28.875Z,99.99
2019-02-05T06:38:28.864Z,99.99
2019-02-05T06:39:28.881Z,99.99
2019-02-05T06:40:28.847Z,99.99
2019-02-05T06:41:28.836Z,99.99
2019-02-05T06:42:28.826Z,99.99
2019-02-05T06:43:28.813Z,99.99
2019-02-05T06:44:28.852Z,99.99
2019-02-05T06:45:28.799Z,99.99
2019-02-05T06:46:28.783Z,99.99
2019-02-05T06:47:28.778Z,99.99
2019-02-05T06:48:28.767Z,99.99
2019-02-05T06:49:28.806Z,99.99
2019-02-05T06:50:28.744Z,99.99
2019-02-05T06:51:28.736Z,99.99
2019-02-05T06:52:28.728Z,99.99
2019-02-05T06:53:28.845Z,99.99
2019-02-05T06:54:28.737Z,99.99
2019-02-05T06:55:28.705Z,99.99
2019-02-05T06:56:28.692Z,99.99
2019-02-05T06:57:28.681Z,99.99
2019-02-05T06:58:28.675Z,99.99
2019-02-05T06:59:28.700Z,99.99
2019-02-05T07:00:28.646Z,99.99
2019-02-05T07:01:28.636Z,99.82
2019-02-05T07:02:28.641Z,99.25
2019-02-05T07:03:28.651Z,98.98
2019-02-05T07:04:28.608Z,98.77
2019-02-05T07:05:28.617Z,98.83
2019-02-05T07:06:28.590Z,98.09
2019-02-05T07:07:28.576Z,97.14
2019-02-05T07:08:28.601Z,97.25
2019-02-05T07:09:28.599Z,96.93
2019-02-05T07:10:28.646Z,97.25
2019-02-05T07:11:28.545Z,97.35
2019-02-05T07:12:28.536Z,97.35
2019-02-05T07:13:28.518Z,96.78
2019-02-05T07:14:28.666Z,97.41
2019-02-05T07:15:28.514Z,97.31
2019-02-05T07:16:28.514Z,97.52
2019-02-05T07:17:28.489Z,97.31
2019-02-05T07:18:28.471Z,97.20
2019-02-05T07:19:28.459Z,97.41
2019-02-05T07:20:28.499Z,96.67
2019-02-05T07:21:28.444Z,97.09
2019-02-05T07:22:28.431Z,97.20
2019-02-05T07:23:28.415Z,97.20
2019-02-05T07:24:28.420Z,97.09
2019-02-05T07:25:28.445Z,97.41
2019-02-05T07:26:28.398Z,97.52
2019-02-05T07:27:28.384Z,97.58
2019-02-05T07:28:28.369Z,97.69
2019-02-05T07:29:28.363Z,97.79
2019-02-05T07:30:28.475Z,97.58
2019-02-05T07:31:28.341Z,97.37
2019-02-05T07:32:28.330Z,97.47
2019-02-05T07:33:28.317Z,97.37
2019-02-05T07:34:28.310Z,97.16
2019-02-05T07:35:28.335Z,97.05
2019-02-05T07:36:28.291Z,97.16
2019-02-05T07:37:28.283Z,97.16
2019-02-05T07:38:28.267Z,97.22
2019-02-05T07:39:28.267Z,97.33
2019-02-05T07:40:28.286Z,97.22
2019-02-05T07:41:28.239Z,97.11
2019-02-05T07:42:28.239Z,97.33
2019-02-05T07:43:28.219Z,97.33
2019-02-05T07:44:28.208Z,96.91
2019-02-05T07:45:28.215Z,96.80
2019-02-05T07:46:28.470Z,97.22
2019-02-05T07:47:28.212Z,97.22
2019-02-05T07:48:30.456Z,96.97
2019-02-05T07:49:28.163Z,97.01
2019-02-05T07:50:28.152Z,96.86
2019-02-05T07:51:28.144Z,96.75
2019-02-05T07:52:28.171Z,97.03
2019-02-05T07:53:28.126Z,96.61
2019-02-05T07:54:28.144Z,97.17
2019-02-05T07:55:28.103Z,96.08
2019-02-05T07:56:28.126Z,95.66
2019-02-05T07:57:28.116Z,95.76
2019-02-05T07:58:28.069Z,96.02
2019-02-05T07:59:28.055Z,95.70
2019-02-05T08:00:28.179Z,96.75
2019-02-05T08:01:28.045Z,95.91
2019-02-05T08:02:28.036Z,96.71
2019-02-05T08:03:28.056Z,95.97
2019-02-05T08:04:28.017Z,95.87
2019-02-05T08:05:27.998Z,95.76
2019-02-05T08:06:27.989Z,96.81
2019-02-05T08:07:28.074Z,95.83
2019-02-05T08:08:27.994Z,97.34
2019-02-05T08:09:27.956Z,95.76
2019-02-05T08:10:27.990Z,96.08
2019-02-05T08:11:27.942Z,95.51
2019-02-05T08:12:27.929Z,95.93
2019-02-05T08:13:27.924Z,96.67
2019-02-05T08:14:27.917Z,95.93
2019-02-05T08:15:28.015Z,95.51
2019-02-05T08:16:27.889Z,95.40
2019-02-05T08:17:27.875Z,95.51
2019-02-05T08:18:27.870Z,95.72
2019-02-05T08:19:27.902Z,95.51
2019-02-05T08:20:27.883Z,94.52
2019-02-05T08:21:27.837Z,94.21
2019-02-05T08:22:27.835Z,94.31
2019-02-05T08:23:27.816Z,94.73
2019-02-05T08:24:27.806Z,94.48
2019-02-05T08:25:27.827Z,94.79
2019-02-05T08:26:27.786Z,95.64
2019-02-05T08:27:27.778Z,95.10
2019-02-05T08:28:27.769Z,94.90
2019-02-05T08:29:27.753Z,95.10
2019-02-05T08:30:27.789Z,95.00
2019-02-05T08:31:27.746Z,94.90
2019-02-05T08:32:27.727Z,94.58
2019-02-05T08:33:27.718Z,94.27
2019-02-05T08:34:27.705Z,95.64
2019-02-05T08:35:27.703Z,94.58
2019-02-05T08:36:27.735Z,94.48
2019-02-05T08:37:27.689Z,93.59
2019-02-05T08:38:27.671Z,94.37
2019-02-05T08:39:27.657Z,94.69
2019-02-05T08:40:27.668Z,94.58
2019-02-05T08:41:27.669Z,93.80
2019-02-05T08:42:27.630Z,94.33
2019-02-05T08:43:27.616Z,94.65
2019-02-05T08:44:27.606Z,94.43
2019-02-05T08:45:27.628Z,94.08
2019-02-05T08:46:27.643Z,93.59
2019-02-05T08:47:27.582Z,93.49
2019-02-05T08:48:27.564Z,93.38
2019-02-05T08:49:27.558Z,93.49
2019-02-05T08:50:27.594Z,93.24
2019-02-05T08:51:27.567Z,92.82
2019-02-05T08:52:27.534Z,93.44
2019-02-05T08:53:27.523Z,93.44
2019-02-05T08:54:27.525Z,92.61
2019-02-05T08:55:30.614Z,92.50
2019-02-05T08:56:27.523Z,92.71
2019-02-05T08:57:27.481Z,93.55
2019-02-05T08:58:31.140Z,93.40
2019-02-05T08:59:27.457Z,92.61
2019-02-05T09:00:27.449Z,92.92
2019-02-05T09:01:27.468Z,94.14
2019-02-05T09:02:27.432Z,94.35
2019-02-05T09:03:27.419Z,92.77
2019-02-05T09:04:27.412Z,93.30
2019-02-05T09:05:27.403Z,93.40
2019-02-05T09:06:27.427Z,92.88
2019-02-05T09:07:27.386Z,90.99
2019-02-05T09:08:35.513Z,91.03
2019-02-05T09:09:27.352Z,91.41
2019-02-05T09:10:27.356Z,91.30
2019-02-05T09:11:27.543Z,91.41
2019-02-05T09:12:27.324Z,92.14
2019-02-05T09:13:27.315Z,93.47
2019-02-05T09:14:27.304Z,93.26
2019-02-05T09:15:29.472Z,93.78
2019-02-05T09:16:27.309Z,93.57
2019-02-05T09:17:27.270Z,92.42
2019-02-05T09:18:27.265Z,93.32
2019-02-05T09:19:27.258Z,93.36
2019-02-05T09:20:27.247Z,93.53
2019-02-05T09:21:27.232Z,92.21
2019-02-05T09:22:27.265Z,92.16
2019-02-05T09:23:27.210Z,92.27
2019-02-05T09:24:27.199Z,92.38
2019-02-05T09:25:27.193Z,90.80
2019-02-05T09:26:27.185Z,91.01
2019-02-05T09:27:27.172Z,89.90
2019-02-05T09:28:27.194Z,89.86
2019-02-05T09:29:33.376Z,90.11
2019-02-05T09:30:28.145Z,92.21
2019-02-05T09:31:27.160Z,93.74
2019-02-05T09:32:27.127Z,93.53
2019-02-05T09:33:27.118Z,93.27
2019-02-05T09:34:27.103Z,92.23
2019-02-05T09:35:27.088Z,90.70
2019-02-05T09:36:27.128Z,90.22
2019-02-05T09:37:27.100Z,90.36
2019-02-05T09:38:27.060Z,90.78
2019-02-05T09:39:27.049Z,90.99
2019-02-05T09:40:27.044Z,91.72
2019-02-05T09:41:27.057Z,91.72
2019-02-05T09:42:27.019Z,91.52
2019-02-05T09:43:27.016Z,91.41
2019-02-05T09:44:27.005Z,91.35
2019-02-05T09:45:26.991Z,90.82
2019-02-05T09:46:27.106Z,92.08
2019-02-05T09:47:26.966Z,91.56
2019-02-05T09:48:26.964Z,91.24
2019-02-05T09:49:26.948Z,91.97
2019-02-05T09:50:26.941Z,92.25
2019-02-05T09:51:26.958Z,92.46
2019-02-05T09:52:26.915Z,93.30
2019-02-05T09:53:26.914Z,93.36
2019-02-05T09:54:26.894Z,92.42
2019-02-05T09:55:26.884Z,92.94
2019-02-05T09:56:26.903Z,93.15
2019-02-05T09:57:26.868Z,92.83
2019-02-05T09:58:26.859Z,91.89
2019-02-05T09:59:26.877Z,92.32
2019-02-05T10:00:26.857Z,93.21
2019-02-05T10:01:26.833Z,93.32
2019-02-05T10:02:26.820Z,92.16
2019-02-05T10:03:26.809Z,92.06
2019-02-05T10:04:26.796Z,91.96
2019-02-05T10:05:26.824Z,91.33
2019-02-05T10:06:26.778Z,92.16
2019-02-05T10:07:26.767Z,92.38
2019-02-05T10:08:26.767Z,90.22
2019-02-05T10:09:26.752Z,89.17
2019-02-05T10:10:26.736Z,89.90
2019-02-05T10:11:26.766Z,90.47
2019-02-05T10:12:26.717Z,90.36
2019-02-05T10:13:26.718Z,90.36
2019-02-05T10:14:26.697Z,90.72
2019-02-05T10:15:26.694Z,91.20
2019-02-05T10:16:26.673Z,90.99
2019-02-05T10:17:26.687Z,92.04
2019-02-05T10:18:26.664Z,92.57
2019-02-05T10:19:26.649Z,92.99
2019-02-05T10:20:26.637Z,93.19
2019-02-05T10:21:26.655Z,93.36
2019-02-05T10:22:26.617Z,93.36
2019-02-05T10:23:26.609Z,93.01
2019-02-05T10:24:26.599Z,93.21
2019-02-05T10:25:26.588Z,92.27
2019-02-05T10:26:26.607Z,90.22
2019-02-05T10:27:26.582Z,90.32
2019-02-05T10:28:26.553Z,90.36
2019-02-05T10:29:26.557Z,90.25
2019-02-05T10:30:26.533Z,90.47
2019-02-05T10:31:26.818Z,90.25
2019-02-05T10:32:26.512Z,90.67
2019-02-05T10:33:26.622Z,92.21
2019-02-05T10:34:33.744Z,92.42
2019-02-05T10:35:27.482Z,92.10
2019-02-05T10:36:26.478Z,92.21
2019-02-05T10:37:26.508Z,92.21
2019-02-05T10:38:26.457Z,92.32
2019-02-05T10:39:26.453Z,92.48
2019-02-05T10:40:26.439Z,92.48
2019-02-05T10:41:26.427Z,92.42
2019-02-05T10:42:26.418Z,92.16
2019-02-05T10:43:26.442Z,91.89
2019-02-05T10:44:26.424Z,92.10
2019-02-05T10:45:26.387Z,92.00
2019-02-05T10:46:26.381Z,92.52
2019-02-05T10:47:26.425Z,92.10
2019-02-05T10:48:26.362Z,92.21
2019-02-05T10:49:26.349Z,92.25
2019-02-05T10:50:26.340Z,92.46
2019-02-05T10:51:26.347Z,92.77
2019-02-05T10:52:26.346Z,92.77
2019-02-05T10:53:26.306Z,92.88
2019-02-05T10:54:26.295Z,92.35
2019-02-05T10:55:26.282Z,92.63
2019-02-05T10:56:26.276Z,92.83
2019-02-05T10:57:26.296Z,92.16
2019-02-05T10:58:26.254Z,91.96
2019-02-05T10:59:26.246Z,92.06
2019-02-05T11:00:26.247Z,92.16
2019-02-05T11:01:26.225Z,91.91
2019-02-05T11:02:26.243Z,91.28
2019-02-05T11:03:26.219Z,90.66
2019-02-05T11:04:26.201Z,90.51
2019-02-05T11:05:26.193Z,89.57
2019-02-05T11:06:26.181Z,90.61
2019-02-05T11:07:26.193Z,89.50
2019-02-05T11:08:27.006Z,88.56
2019-02-05T11:09:26.145Z,88.87
2019-02-05T11:10:26.233Z,89.82
2019-02-05T11:11:26.961Z,88.35
2019-02-05T11:12:27.004Z,87.24
2019-02-05T11:13:26.138Z,87.55
2019-02-05T11:14:26.126Z,87.91
2019-02-05T11:15:26.967Z,88.75
2019-02-05T11:16:26.996Z,88.85
2019-02-05T11:17:26.065Z,89.06
2019-02-05T11:18:26.080Z,90.11
2019-02-05T11:19:26.036Z,91.37
2019-02-05T11:20:27.002Z,91.01
2019-02-05T11:21:26.994Z,90.38
2019-02-05T11:22:26.024Z,88.60
2019-02-05T11:23:26.041Z,88.07
2019-02-05T11:24:25.992Z,88.29
2019-02-05T11:25:25.989Z,88.39
2019-02-05T11:26:25.973Z,88.60
2019-02-05T11:27:25.968Z,88.18
2019-02-05T11:28:25.983Z,88.32
2019-02-05T11:29:25.944Z,88.64
2019-02-05T11:30:25.948Z,89.27
2019-02-05T11:31:25.926Z,89.48
2019-02-05T11:32:25.947Z,90.07
2019-02-05T11:33:25.909Z,88.81
2019-02-05T11:34:25.902Z,88.92
2019-02-05T11:35:25.884Z,88.60
2019-02-05T11:36:25.875Z,88.39
2019-02-05T11:37:25.903Z,89.12
2019-02-05T11:38:25.855Z,90.66
2019-02-05T11:39:25.844Z,91.03
2019-02-05T11:40:25.825Z,90.55
2019-02-05T11:41:25.818Z,88.84
2019-02-05T11:42:25.807Z,88.84
2019-02-05T11:43:25.828Z,89.47
2019-02-05T11:44:25.824Z,89.42
2019-02-05T11:45:25.776Z,88.31
2019-02-05T11:46:25.775Z,88.31
2019-02-05T11:47:25.754Z,88.42
2019-02-05T11:48:25.756Z,88.94
2019-02-05T11:49:25.767Z,88.17
2019-02-05T11:50:25.735Z,89.84
2019-02-05T11:51:25.722Z,88.27
2019-02-05T11:52:25.712Z,87.79
2019-02-05T11:53:25.694Z,88.42
2019-02-05T11:54:25.691Z,88.84
2019-02-05T11:55:25.713Z,88.84
2019-02-05T11:56:25.664Z,87.79
2019-02-05T11:57:25.688Z,87.79
2019-02-05T11:58:25.647Z,86.95
2019-02-05T11:59:25.639Z,87.05
2019-02-05T12:00:32.603Z,86.88
2019-02-05T12:01:38.084Z,86.68
2019-02-05T12:02:26.628Z,88.24
2019-02-05T12:03:25.591Z,87.72
2019-02-05T12:04:25.591Z,88.24
2019-02-05T12:05:25.576Z,87.41
2019-02-05T12:06:25.561Z,88.31
2019-02-05T12:07:25.593Z,88.37
2019-02-05T12:08:25.553Z,87.89
2019-02-05T12:09:25.537Z,88.17
2019-02-05T12:10:25.534Z,87.96
2019-02-05T12:11:25.506Z,86.60
2019-02-05T12:12:25.540Z,86.43
2019-02-05T12:13:25.491Z,87.68
2019-02-05T12:14:25.483Z,86.80
2019-02-05T12:15:25.463Z,85.80
2019-02-05T12:16:25.460Z,86.63
2019-02-05T12:17:25.478Z,88.31
2019-02-05T12:18:25.441Z,87.68
2019-02-05T12:19:25.439Z,87.64
2019-02-05T12:20:25.417Z,86.49
2019-02-05T12:21:25.406Z,86.28
2019-02-05T12:22:25.393Z,86.98
2019-02-05T12:23:25.426Z,86.07
2019-02-05T12:24:25.381Z,86.49
2019-02-05T12:25:25.409Z,85.97
2019-02-05T12:26:25.393Z,86.60
2019-02-05T12:27:25.354Z,87.74
2019-02-05T12:28:25.337Z,86.07
2019-02-05T12:29:25.328Z,85.59
2019-02-05T12:30:25.315Z,85.59
2019-02-05T12:31:25.302Z,85.48
2019-02-05T12:32:25.329Z,86.53
2019-02-05T12:33:25.317Z,86.53
2019-02-05T12:34:25.270Z,86.68
2019-02-05T12:35:25.264Z,87.20
2019-02-05T12:36:25.275Z,86.78
2019-02-05T12:37:25.241Z,87.66
2019-02-05T12:38:25.262Z,88.29
2019-02-05T12:39:25.221Z,88.71
2019-02-05T12:40:25.213Z,88.49
2019-02-05T12:41:25.205Z,89.29
2019-02-05T12:42:25.192Z,87.83
2019-02-05T12:43:25.206Z,87.20
2019-02-05T12:44:25.178Z,88.14
2019-02-05T12:45:25.164Z,88.56
2019-02-05T12:46:25.163Z,88.14
2019-02-05T12:47:25.141Z,87.72
2019-02-05T12:48:25.227Z,87.83
2019-02-05T12:49:25.148Z,86.25
2019-02-05T12:50:25.114Z,87.41
2019-02-05T12:51:25.101Z,87.51
2019-02-05T12:52:25.093Z,87.62